Portada
METAR-TAF:

METAR-TAF

Aeropuertos :

Nimes, Francia

latitud: 43-45N, longitud: 004-25E, altitud: 94 m

Observación

El informe se hizo hace 11 minutos, a las 13:30 UTC
Viento 14 kt del norte, variando entre norte-noroeste y norte-noreste
Temperatura 14°C
Humedad 38%
Presión 1028 hPa
Visibilidad 10 km o más
sin nubes por debajo de 1500 m y sin presencia de cumulonimbus.

METAR: LFTW 031330Z AUTO 36014KT 330V030 CAVOK 14/M00 Q1028 TEMPO 01020G30KT

Hora: 14:41 (13:41 UTC)

Pronóstico

El informe se hizo hace 5 horas y 41 minutos, a las 08:00 UTC
Pronóstico válido del 03 a las 09 UTC al 04 a las 09 UTC
Viento 20 kt del norte con ráfagas de 30 kt
Visibilidad 10 km o más
sin nubes por debajo de 1500 m y sin presencia de cumulonimbus.
Temporalmente
del 03 a las 15 UTC al 03 a las 20 UTC
Viento 15 kt del norte

TAF: LFTW 030800Z 0309/0409 01020G30KT CAVOK TEMPO 0315/0320 36015KT

Observaciones y pronósticos meteorológicos de más de 4000 aeropuertos (mensajes METAR y TAF).

Los puntos amarillos y rojos representan las estaciones disponibles.

Ponga el ratón en el punto deseado para ver el nombre de la estación.

Haga clic para ver las observaciones y los pronósticos meteorológicos.

Para cambiar el mapa : haga clic en los botones verdes con una cruz de color negro para hacer un zoom, en el botón verde con un guión para alejar o en las flechas verdes para mapas adyacentes.


METAR-TAF: